Time;durP1;ratioP1;P1;durP2;ratioP2;P2;SDS_P1;SDS_P2;PMS_P1;PMS_P2;Temp;Humidity;BMP_temperature;BMP_pressure;BME280_temperature;BME280_humidity;BME280_pressure;Samples;Min_cycle;Max_cycle;Signal;HPM_P1;HPM_P2
2023/09/21 00:01:06;;;;;;;0.88;0.88;;;;;;;27.06;44.19;99870.03;5011178;28;20097;-70
2023/09/21 00:03:35;;;;;;;2.33;1.00;;;;;;;26.87;44.63;99870.91;4993668;28;20438;-70
2023/09/21 00:06:01;;;;;;;3.90;1.33;;;;;;;25.99;45.92;99863.69;5010111;28;20505;-70
2023/09/21 00:08:27;;;;;;;3.15;1.33;;;;;;;25.94;46.67;99865.94;4993898;28;20034;-69
2023/09/21 00:10:54;;;;;;;3.38;1.25;;;;;;;25.78;47.35;99857.59;4992854;28;20083;-69
2023/09/21 00:13:21;;;;;;;0.63;0.63;;;;;;;26.84;44.22;99860.50;4992796;28;20022;-70
2023/09/21 00:15:47;;;;;;;1.15;0.85;;;;;;;26.22;46.02;99860.78;4993430;28;20037;-69
2023/09/21 00:18:13;;;;;;;3.80;1.08;;;;;;;26.80;44.90;99849.19;4993192;28;20056;-70
2023/09/21 00:23:08;;;;;;;3.28;1.13;;;;;;;26.16;46.22;99861.34;5010174;28;20046;-70
2023/09/21 00:25:34;;;;;;;4.82;1.10;;;;;;;26.16;46.21;99854.16;4993219;28;20030;-69
2023/09/21 00:28:07;;;;;;;1.63;0.85;;;;;;;26.18;46.18;99854.03;4992033;28;20026;-70
2023/09/21 00:30:35;;;;;;;2.80;1.10;;;;;;;26.28;45.95;99843.31;5010880;28;20544;-69
2023/09/21 00:33:01;;;;;;;2.55;1.10;;;;;;;26.82;44.77;99846.38;4992562;28;20402;-69
2023/09/21 00:35:29;;;;;;;1.13;0.80;;;;;;;26.66;44.92;99852.31;5010238;28;20469;-70
2023/09/21 00:37:56;;;;;;;3.03;1.33;;;;;;;26.05;46.66;99848.94;5008891;28;20513;-70
2023/09/21 00:40:22;;;;;;;4.88;1.02;;;;;;;26.62;45.43;99840.19;5010722;28;20022;-70
2023/09/21 00:42:49;;;;;;;1.77;0.98;;;;;;;26.74;45.47;99839.06;4992260;28;20511;-69
2023/09/21 00:45:14;;;;;;;1.85;0.80;;;;;;;25.85;46.92;99838.16;5010323;28;20500;-70
2023/09/21 00:47:47;;;;;;;2.25;1.20;;;;;;;26.69;45.51;99830.56;4991767;28;20025;-70
2023/09/21 00:50:12;;;;;;;2.22;0.93;;;;;;;26.73;45.69;99832.00;5010220;28;20029;-70
2023/09/21 00:52:40;;;;;;;1.48;0.75;;;;;;;27.20;44.22;99829.34;4992644;28;20494;-70
2023/09/21 00:55:09;;;;;;;3.55;0.90;;;;;;;26.30;46.59;99825.28;4991615;28;20037;-72
2023/09/21 00:57:36;;;;;;;2.80;1.00;;;;;;;26.85;45.45;99830.84;4992775;28;20037;-69
2023/09/21 01:00:09;;;;;;;1.20;0.93;;;;;;;26.84;44.98;99823.78;4992178;28;20022;-70
2023/09/21 01:02:35;;;;;;;2.78;1.27;;;;;;;27.01;44.67;99821.34;4992081;28;20056;-70
2023/09/21 01:05:00;;;;;;;2.15;0.80;;;;;;;26.69;45.60;99820.69;5008696;28;20482;-70
2023/09/21 01:07:26;;;;;;;1.98;1.27;;;;;;;26.71;45.51;99812.56;5008869;28;20045;-70
2023/09/21 01:09:52;;;;;;;3.88;1.10;;;;;;;27.25;44.43;99816.31;5009042;28;20026;-70
2023/09/21 01:12:18;;;;;;;2.35;1.00;;;;;;;26.60;45.64;99810.84;4992187;28;20022;-70
2023/09/21 01:14:44;;;;;;;2.33;1.20;;;;;;;26.47;45.77;99816.50;4992829;28;20032;-70
2023/09/21 01:17:09;;;;;;;2.70;1.02;;;;;;;26.83;45.40;99814.09;5008886;28;20029;-70
2023/09/21 01:19:35;;;;;;;3.83;1.35;;;;;;;27.05;44.54;99806.66;4992551;28;20030;-70
2023/09/21 01:22:08;;;;;;;2.05;1.20;;;;;;;27.22;44.15;99805.06;4992101;28;20021;-70
2023/09/21 01:24:35;;;;;;;1.65;1.10;;;;;;;26.61;45.44;99800.97;4991577;28;20034;-70
2023/09/21 01:27:00;;;;;;;1.52;1.20;;;;;;;26.90;45.13;99801.78;5007812;28;20552;-70
2023/09/21 01:29:29;;;;;;;2.10;1.00;;;;;;;26.95;44.86;99797.81;5008595;28;20026;-70
2023/09/21 01:31:57;;;;;;;1.30;1.20;;;;;;;26.62;45.47;99797.31;4990944;28;20029;-70
2023/09/21 01:34:22;;;;;;;6.38;1.30;;;;;;;26.23;46.58;99796.38;5008890;28;20025;-70
2023/09/21 01:36:48;;;;;;;2.33;1.08;;;;;;;26.54;45.95;99798.88;5008013;28;20489;-70
2023/09/21 01:39:14;;;;;;;2.00;1.35;;;;;;;26.86;45.06;99784.31;4991702;28;20026;-70
2023/09/21 01:41:39;;;;;;;1.17;1.00;;;;;;;26.52;45.57;99789.28;5008415;28;20025;-70
2023/09/21 01:44:06;;;;;;;4.32;0.93;;;;;;;27.13;44.61;99785.31;4991252;28;20088;-70
2023/09/21 01:46:33;;;;;;;1.80;1.20;;;;;;;27.09;44.33;99790.13;4992067;28;20022;-70
2023/09/21 01:48:58;;;;;;;1.13;1.02;;;;;;;26.73;45.38;99789.13;5007906;28;20026;-70
2023/09/21 01:51:24;;;;;;;1.33;0.98;;;;;;;27.06;44.60;99784.22;4991266;28;20037;-70
2023/09/21 01:53:49;;;;;;;1.42;1.00;;;;;;;26.97;45.20;99790.47;5010042;28;20037;-70
2023/09/21 01:56:15;;;;;;;2.30;1.15;;;;;;;27.05;44.74;99788.75;4991958;28;20449;-70
2023/09/21 01:58:40;;;;;;;1.38;1.27;;;;;;;26.91;45.21;99781.16;4991387;28;20038;-70
2023/09/21 02:01:06;;;;;;;1.65;0.90;;;;;;;26.81;45.21;99789.25;4992018;28;20033;-70
2023/09/21 02:03:32;;;;;;;4.35;1.30;;;;;;;27.26;44.27;99775.09;4991870;28;20026;-70
2023/09/21 02:05:59;;;;;;;1.40;1.05;;;;;;;26.96;45.04;99794.16;5008694;28;20022;-70
2023/09/21 02:08:25;;;;;;;3.13;1.10;;;;;;;26.91;45.71;99784.72;4991965;28;20099;-70
2023/09/21 02:10:51;;;;;;;2.95;1.20;;;;;;;27.00;45.04;99795.53;5009274;28;20029;-70
2023/09/21 02:13:17;;;;;;;2.13;1.10;;;;;;;27.19;44.86;99795.47;5007844;28;20025;-70
2023/09/21 02:15:43;;;;;;;2.05;0.95;;;;;;;26.86;45.14;99792.34;5010067;28;20033;-70
2023/09/21 02:18:10;;;;;;;2.90;1.50;;;;;;;26.49;46.16;99787.75;5009209;28;20470;-70
2023/09/21 02:20:38;;;;;;;1.33;1.00;;;;;;;27.36;44.30;99779.59;4991350;28;20034;-70
2023/09/21 02:23:05;;;;;;;3.25;1.30;;;;;;;27.05;44.81;99783.38;4988253;28;20112;-70
2023/09/21 02:25:34;;;;;;;3.47;1.25;;;;;;;26.91;45.54;99787.41;4972310;28;20041;-70
2023/09/21 02:28:00;;;;;;;2.05;1.10;;;;;;;27.37;44.54;99781.28;4988684;28;20023;-70
2023/09/21 02:30:25;;;;;;;2.20;1.17;;;;;;;27.16;44.53;99779.66;4989994;28;20030;-70
2023/09/21 02:32:52;;;;;;;3.20;1.00;;;;;;;26.96;44.72;99778.06;4989640;28;20023;-71
2023/09/21 02:35:24;;;;;;;2.17;1.10;;;;;;;27.11;44.90;99768.53;4971797;28;20471;-70
2023/09/21 02:37:51;;;;;;;4.10;1.30;;;;;;;27.16;44.59;99763.59;4990196;28;20109;-70
2023/09/21 02:40:19;;;;;;;2.03;1.08;;;;;;;28.38;42.51;99742.63;4991265;28;20596;-70
2023/09/21 02:42:48;;;;;;;1.27;1.10;;;;;;;28.17;42.65;99757.25;4993534;28;20022;-70
2023/09/21 02:45:14;;;;;;;1.58;1.27;;;;;;;28.29;42.16;99746.25;4992862;28;20498;-70
2023/09/21 02:47:41;;;;;;;4.18;1.05;;;;;;;27.77;43.40;99745.16;4991042;28;20027;-70
2023/09/21 02:50:25;;;;;;;1.27;1.13;;;;;;;27.39;44.07;99747.09;4992778;28;20037;-71
2023/09/21 02:52:55;;;;;;;1.52;1.02;;;;;;;28.22;42.37;99733.47;4975285;28;20030;-70
2023/09/21 02:55:22;;;;;;;1.88;1.02;;;;;;;27.61;43.51;99744.97;4990860;28;20076;-70
2023/09/21 02:57:58;;;;;;;2.80;1.40;;;;;;;28.44;42.51;99729.41;4975589;28;20026;-70
2023/09/21 03:00:34;;;;;;;2.08;1.10;;;;;;;28.44;42.05;99731.28;4991705;28;20033;-70
2023/09/21 03:03:01;;;;;;;6.22;1.42;;;;;;;27.31;45.06;99744.28;4974319;28;20038;-70
2023/09/21 03:05:27;;;;;;;1.85;1.13;;;;;;;26.64;46.06;99747.94;4975296;28;20065;-70
2023/09/21 03:07:54;;;;;;;5.75;1.45;;;;;;;26.58;46.33;99752.06;4974661;28;20042;-70
2023/09/21 03:10:25;;;;;;;1.13;1.02;;;;;;;26.50;47.37;99751.94;4992071;28;20022;-70
2023/09/21 03:12:52;;;;;;;2.25;1.40;;;;;;;27.03;47.00;99749.66;4975092;28;20103;-70
2023/09/21 03:15:20;;;;;;;2.13;0.93;;;;;;;26.59;48.45;99761.75;4990868;28;20524;-70
2023/09/21 03:17:47;;;;;;;2.72;1.10;;;;;;;25.45;51.66;99764.16;4992777;28;20030;-70
2023/09/21 03:20:35;;;;;;;1.50;1.10;;;;;;;26.86;49.60;99762.00;4992190;28;20026;-69
2023/09/21 03:23:05;;;;;;;3.17;1.20;;;;;;;26.03;52.01;99750.00;4999129;28;20037;-70
2023/09/21 03:25:42;;;;;;;3.50;1.20;;;;;;;26.77;50.41;99753.00;4994463;28;20022;-70
2023/09/21 03:28:15;;;;;;;2.45;1.25;;;;;;;26.71;51.04;99753.59;5011917;28;20037;-70
2023/09/21 03:30:42;;;;;;;1.75;1.08;;;;;;;25.68;53.53;99756.75;4993765;28;20076;-70
2023/09/21 03:33:11;;;;;;;3.92;1.30;;;;;;;25.77;53.63;99746.19;5011199;28;20040;-70
2023/09/21 03:35:37;;;;;;;4.70;1.30;;;;;;;26.47;52.01;99749.53;5011938;28;20504;-71
2023/09/21 03:38:06;;;;;;;3.53;1.23;;;;;;;26.52;51.55;99749.94;5010827;28;20030;-70
2023/09/21 03:40:34;;;;;;;1.80;1.30;;;;;;;26.06;53.23;99749.75;5011743;28;20022;-75
2023/09/21 03:43:00;;;;;;;4.68;0.90;;;;;;;26.92;51.22;99740.81;4993572;28;20032;-70
2023/09/21 03:45:25;;;;;;;1.85;1.30;;;;;;;26.03;53.76;99741.13;5011006;28;20034;-70
2023/09/21 03:47:52;;;;;;;2.90;1.30;;;;;;;27.03;50.94;99736.25;4993837;28;20021;-69
2023/09/21 03:50:18;;;;;;;5.18;1.60;;;;;;;26.41;52.86;99740.25;4993794;28;20032;-70
2023/09/21 03:52:44;;;;;;;1.63;1.10;;;;;;;27.13;51.10;99725.47;4992911;28;20026;-70
2023/09/21 03:55:15;;;;;;;2.97;1.20;;;;;;;26.86;51.32;99736.06;5011160;28;20072;-69
2023/09/21 03:57:46;;;;;;;1.73;1.00;;;;;;;27.17;50.99;99725.03;4993408;28;20440;-70
2023/09/21 04:00:26;;;;;;;2.75;1.20;;;;;;;26.78;52.68;99733.25;5011062;28;20028;-70
2023/09/21 04:02:55;;;;;;;2.53;1.30;;;;;;;26.36;53.65;99729.09;5010831;28;20018;-69
2023/09/21 04:05:23;;;;;;;1.90;1.40;;;;;;;27.09;51.61;99725.78;4993164;28;20020;-69
2023/09/21 04:07:49;;;;;;;3.38;1.98;;;;;;;27.81;49.83;99718.81;4993736;28;20378;-69
2023/09/21 04:10:15;;;;;;;2.60;1.42;;;;;;;27.81;50.15;99722.38;4993258;28;20026;-70
2023/09/21 04:12:41;;;;;;;2.47;1.20;;;;;;;28.03;49.34;99709.50;4992730;28;20072;-70
2023/09/21 04:15:08;;;;;;;4.40;1.58;;;;;;;27.61;50.25;99712.78;4993052;28;20473;-69
2023/09/21 04:17:35;;;;;;;1.58;1.13;;;;;;;27.75;50.67;99707.72;5009972;28;20117;-69
2023/09/21 04:20:09;;;;;;;3.45;1.60;;;;;;;27.85;50.00;99710.31;5009850;28;20033;-69
2023/09/21 04:22:35;;;;;;;2.10;1.30;;;;;;;27.72;50.29;99705.31;5010606;28;20125;-69
2023/09/21 04:25:07;;;;;;;1.70;1.27;;;;;;;26.85;52.16;99710.22;4992729;28;20029;-69
2023/09/21 04:27:33;;;;;;;1.80;1.38;;;;;;;26.89;51.95;99719.66;4992422;28;20022;-69
2023/09/21 04:29:58;;;;;;;2.28;1.48;;;;;;;26.86;52.45;99708.38;4992927;28;20029;-69
2023/09/21 04:32:23;;;;;;;1.70;1.30;;;;;;;26.78;52.43;99710.97;4993003;28;20029;-68
2023/09/21 04:34:49;;;;;;;6.07;1.73;;;;;;;26.61;53.03;99708.03;4991865;28;20033;-69
2023/09/21 04:37:14;;;;;;;1.83;1.33;;;;;;;26.63;52.67;99707.91;4992483;28;20072;-69
2023/09/21 04:39:40;;;;;;;2.20;2.03;;;;;;;27.37;51.55;99695.44;5009795;28;20061;-68
2023/09/21 04:42:05;;;;;;;3.45;1.90;;;;;;;26.79;52.10;99702.78;4992501;28;20117;-69
2023/09/21 04:44:32;;;;;;;3.25;1.85;;;;;;;27.49;50.87;99702.28;5010314;28;20060;-69
2023/09/21 04:46:58;;;;;;;2.78;1.80;;;;;;;26.83;52.22;99704.19;4991452;28;20145;-68
2023/09/21 04:49:24;;;;;;;2.60;1.63;;;;;;;25.93;53.72;99705.50;4992914;28;20121;-68
2023/09/21 04:51:49;;;;;;;5.18;1.83;;;;;;;26.18;53.96;99710.25;4992842;28;20034;-68
2023/09/21 04:54:15;;;;;;;3.10;1.60;;;;;;;27.01;51.59;99706.06;5007848;28;20541;-68
2023/09/21 04:56:40;;;;;;;6.20;2.03;;;;;;;25.82;55.86;99709.16;4992522;28;20101;-68
2023/09/21 04:59:05;;;;;;;1.77;1.63;;;;;;;25.82;55.44;99709.97;5008593;28;20040;-69
2023/09/21 05:01:31;;;;;;;3.83;1.77;;;;;;;25.87;55.88;99699.72;4990809;28;20034;-69
2023/09/21 05:03:56;;;;;;;3.70;1.48;;;;;;;26.01;55.72;99686.88;5009793;28;20494;-68
2023/09/21 05:06:23;;;;;;;3.47;1.70;;;;;;;25.62;56.35;99706.44;5010245;28;20517;-68
2023/09/21 05:08:48;;;;;;;1.90;1.73;;;;;;;24.45;59.34;99698.88;4991840;28;20030;-68
2023/09/21 05:11:15;;;;;;;2.60;1.40;;;;;;;24.46;60.04;99697.91;5009780;28;20026;-68
2023/09/21 05:13:40;;;;;;;2.80;1.52;;;;;;;23.85;62.49;99703.91;4992091;28;20118;-68
2023/09/21 05:16:05;;;;;;;3.67;1.50;;;;;;;23.16;65.85;99715.78;4991557;28;20499;-68
2023/09/21 05:18:31;;;;;;;3.28;1.67;;;;;;;24.09;63.77;99711.72;5010168;28;20040;-68
2023/09/21 05:20:56;;;;;;;2.92;1.25;;;;;;;24.02;63.78;99723.91;4991815;28;20478;-68
2023/09/21 05:23:22;;;;;;;4.13;1.73;;;;;;;24.28;63.94;99723.53;5007918;28;20081;-67
2023/09/21 05:25:47;;;;;;;2.72;1.42;;;;;;;23.63;65.27;99723.53;5008518;28;20033;-67
2023/09/21 05:28:13;;;;;;;2.13;1.40;;;;;;;25.23;59.67;99717.91;5009453;28;20084;-67
2023/09/21 05:30:39;;;;;;;2.38;1.35;;;;;;;24.46;64.03;99727.28;4991577;28;20072;-67
2023/09/21 05:33:05;;;;;;;1.50;1.40;;;;;;;25.43;59.21;99717.13;5009501;28;20470;-67
2023/09/21 05:35:31;;;;;;;2.60;1.50;;;;;;;23.30;67.04;99734.19;4992344;28;20026;-68
2023/09/21 05:37:56;;;;;;;1.52;1.40;;;;;;;23.67;67.81;99740.97;4990590;28;20458;-68
2023/09/21 05:40:22;;;;;;;1.80;1.60;;;;;;;23.69;68.07;99753.22;5009746;28;20030;-68
2023/09/21 05:42:47;;;;;;;2.40;1.60;;;;;;;23.51;66.52;99752.06;4991965;28;20513;-68
2023/09/21 05:45:13;;;;;;;2.55;1.67;;;;;;;23.72;67.60;99766.28;5008597;28;20025;-68
2023/09/21 05:47:38;;;;;;;2.42;1.58;;;;;;;24.67;62.10;99777.19;4992388;28;20025;-68
2023/09/21 05:50:05;;;;;;;2.92;1.73;;;;;;;25.06;59.48;99798.78;5006983;28;20061;-69
2023/09/21 05:52:33;;;;;;;0.68;0.60;;;;;;;22.81;61.86;99816.16;4991909;28;20049;-68
2023/09/21 05:54:59;;;;;;;2.08;0.50;;;;;;;22.24;61.62;99808.94;4991689;28;20032;-69
2023/09/21 05:57:24;;;;;;;2.55;0.47;;;;;;;21.91;62.05;99802.53;5009130;28;20116;-68
2023/09/21 05:59:51;;;;;;;0.43;0.32;;;;;;;21.69;63.33;99793.44;4991974;28;20468;-68
2023/09/21 06:02:16;;;;;;;1.33;0.32;;;;;;;22.69;60.79;99801.13;5009521;28;20038;-69
2023/09/21 06:04:42;;;;;;;1.00;0.30;;;;;;;23.36;58.45;99791.50;5008741;28;20095;-68
2023/09/21 06:07:08;;;;;;;0.32;0.22;;;;;;;23.72;57.47;99786.81;4991417;28;20033;-68
2023/09/21 06:09:33;;;;;;;0.90;0.32;;;;;;;23.24;58.11;99787.13;5008393;28;20486;-68
2023/09/21 06:11:59;;;;;;;0.50;0.50;;;;;;;23.25;57.37;99783.50;4990391;28;20030;-68
2023/09/21 06:14:25;;;;;;;0.40;0.40;;;;;;;23.96;55.64;99788.44;4994693;28;20522;-68
2023/09/21 06:16:54;;;;;;;0.30;0.20;;;;;;;23.78;56.13;99791.66;4995279;28;20117;-68
2023/09/21 06:19:20;;;;;;;0.32;0.25;;;;;;;24.08;56.08;99800.78;5012563;28;20029;-68
2023/09/21 06:21:47;;;;;;;0.95;0.52;;;;;;;24.30;55.34;99796.31;5011673;28;20474;-68
2023/09/21 06:24:13;;;;;;;0.40;0.40;;;;;;;24.39;54.25;99792.88;4991524;28;20042;-68
2023/09/21 06:26:39;;;;;;;0.20;0.20;;;;;;;23.76;55.57;99801.59;4975420;28;20022;-68
2023/09/21 06:29:04;;;;;;;0.70;0.50;;;;;;;23.75;56.74;99802.56;4992831;28;20089;-68
2023/09/21 06:31:30;;;;;;;1.30;0.20;;;;;;;23.93;55.58;99799.38;4993289;28;20084;-68
2023/09/21 06:33:59;;;;;;;0.65;0.45;;;;;;;24.11;56.11;99797.00;4990728;28;20030;-68
2023/09/21 06:36:28;;;;;;;0.65;0.50;;;;;;;24.31;55.96;99792.69;4991907;28;20475;-68
2023/09/21 06:38:54;;;;;;;1.48;0.40;;;;;;;24.62;55.99;99790.09;4991407;28;20048;-68
2023/09/21 06:41:21;;;;;;;1.45;0.52;;;;;;;24.72;54.15;99786.50;4992386;28;20487;-68
2023/09/21 06:43:46;;;;;;;1.27;0.57;;;;;;;24.75;54.55;99788.06;4993154;28;20081;-68
2023/09/21 06:46:13;;;;;;;1.20;0.50;;;;;;;24.97;53.61;99789.72;4975099;28;20471;-68
2023/09/21 06:48:38;;;;;;;0.38;0.38;;;;;;;24.83;53.50;99792.75;4991377;28;20032;-68
2023/09/21 06:51:05;;;;;;;2.30;0.73;;;;;;;24.65;53.03;99792.53;4974951;28;20026;-68
2023/09/21 06:53:31;;;;;;;0.75;0.50;;;;;;;25.04;52.80;99800.72;4992260;28;20026;-68
2023/09/21 06:55:57;;;;;;;0.60;0.60;;;;;;;24.70;53.42;99792.94;4975023;28;20026;-68
2023/09/21 06:58:22;;;;;;;0.70;0.52;;;;;;;25.12;52.62;99808.91;4992796;28;20030;-68
2023/09/21 07:00:48;;;;;;;0.45;0.35;;;;;;;24.27;54.76;99820.63;4990953;28;20121;-68
2023/09/21 07:03:15;;;;;;;1.23;0.50;;;;;;;24.38;53.74;99810.69;4991001;28;20022;-68
2023/09/21 07:05:40;;;;;;;2.13;0.50;;;;;;;23.13;57.88;99835.97;4992719;28;20098;-68
2023/09/21 07:08:06;;;;;;;1.08;0.70;;;;;;;24.72;54.32;99813.22;4974247;28;20067;-68
2023/09/21 07:10:32;;;;;;;0.55;0.47;;;;;;;24.49;54.46;99812.47;4991361;28;20025;-68
2023/09/21 07:12:58;;;;;;;3.10;0.70;;;;;;;24.19;55.82;99830.13;4990727;28;20033;-67
2023/09/21 07:15:23;;;;;;;2.67;0.68;;;;;;;24.84;53.63;99830.03;4990396;28;20030;-68
2023/09/21 07:17:50;;;;;;;1.70;0.50;;;;;;;24.83;53.65;99812.28;4992435;28;20489;-68
2023/09/21 07:20:23;;;;;;;0.57;0.50;;;;;;;24.84;54.01;99827.34;4990726;28;20084;-68
2023/09/21 07:22:49;;;;;;;;;;;;;;;24.81;54.12;99816.06;4990728;28;20042;-68
2023/09/21 07:25:15;;;;;;;1.52;0.70;;;;;;;24.96;53.47;99813.91;4991231;28;19916;-68
2023/09/21 07:27:40;;;;;;;2.40;0.50;;;;;;;25.17;53.15;99805.84;4992493;28;20026;-68
2023/09/21 07:30:06;;;;;;;1.98;0.40;;;;;;;25.10;53.12;99818.91;4989768;28;20462;-68
2023/09/21 07:32:32;;;;;;;2.47;0.80;;;;;;;25.53;52.70;99796.41;4974364;28;20038;-68
2023/09/21 07:34:58;;;;;;;4.28;0.43;;;;;;;25.53;51.86;99801.78;4990342;28;20541;-68
2023/09/21 07:37:23;;;;;;;2.42;0.80;;;;;;;25.55;52.15;99812.31;4991448;28;20036;-68
2023/09/21 07:39:49;;;;;;;1.55;0.63;;;;;;;25.48;52.11;99814.69;4974680;28;20036;-68
2023/09/21 07:42:15;;;;;;;3.65;0.65;;;;;;;25.74;51.52;99808.84;4991535;28;20085;-68
2023/09/21 07:44:44;;;;;;;1.80;0.60;;;;;;;25.84;51.23;99793.66;4991475;28;20041;-68
2023/09/21 07:47:10;;;;;;;1.10;0.60;;;;;;;25.61;51.26;99805.56;4990194;28;20050;-68
2023/09/21 07:49:36;;;;;;;3.45;0.45;;;;;;;25.24;52.44;99813.19;4990967;28;20549;-68
2023/09/21 07:52:01;;;;;;;0.82;0.52;;;;;;;25.00;52.19;99810.00;4991414;28;20037;-68
2023/09/21 07:54:29;;;;;;;1.80;0.60;;;;;;;25.03;53.22;99815.94;4974427;28;20034;-68
2023/09/21 07:56:54;;;;;;;2.03;0.45;;;;;;;25.57;51.51;99819.25;4990736;28;20038;-68
2023/09/21 07:59:20;;;;;;;1.58;0.45;;;;;;;25.56;51.35;99822.88;4974153;28;20057;-68
2023/09/21 08:01:47;;;;;;;0.45;0.30;;;;;;;25.50;51.72;99828.81;4974020;28;20037;-68
2023/09/21 08:04:12;;;;;;;0.95;0.57;;;;;;;25.46;52.06;99842.56;4973109;28;20513;-68
2023/09/21 08:06:38;;;;;;;1.63;0.77;;;;;;;25.79;50.93;99838.72;4974032;28;20057;-68
2023/09/21 08:09:03;;;;;;;1.85;0.77;;;;;;;25.27;51.50;99846.00;4973759;28;20471;-68
2023/09/21 08:11:28;;;;;;;2.97;0.52;;;;;;;25.05;51.88;99839.84;4990688;28;20062;-68
2023/09/21 08:13:55;;;;;;;1.85;0.40;;;;;;;25.38;52.21;99840.59;4989604;28;20038;-68
2023/09/21 08:16:21;;;;;;;0.57;0.50;;;;;;;25.43;52.32;99842.84;4990064;28;20386;-68
2023/09/21 08:18:47;;;;;;;2.33;0.77;;;;;;;25.34;52.62;99847.19;4990844;28;20034;-68
2023/09/21 08:21:14;;;;;;;0.73;0.50;;;;;;;25.49;52.14;99853.84;4990750;28;20102;-68
2023/09/21 08:23:40;;;;;;;0.57;0.55;;;;;;;25.57;51.20;99850.50;5003999;28;20038;-68
2023/09/21 08:26:05;;;;;;;1.90;0.80;;;;;;;25.55;51.33;99858.66;4992087;28;20066;-67
2023/09/21 08:28:30;;;;;;;0.75;0.47;;;;;;;25.64;51.94;99856.16;4993003;28;20034;-68
2023/09/21 08:30:57;;;;;;;2.45;0.40;;;;;;;25.90;51.05;99851.97;4992597;28;20030;-68
2023/09/21 08:33:23;;;;;;;1.52;0.40;;;;;;;25.99;50.59;99863.69;5008273;28;20582;-68
2023/09/21 08:35:48;;;;;;;1.30;0.40;;;;;;;26.08;49.95;99862.03;5010824;28;20423;-68
2023/09/21 08:38:15;;;;;;;3.72;0.50;;;;;;;25.76;49.93;99860.41;5008929;28;20076;-68
2023/09/21 08:40:43;;;;;;;0.55;0.50;;;;;;;25.68;50.89;99865.59;5008388;28;20088;-68
2023/09/21 08:43:19;;;;;;;1.52;0.60;;;;;;;25.48;50.88;99862.00;4992441;28;20445;-68
2023/09/21 08:45:46;;;;;;;0.65;0.65;;;;;;;25.09;51.90;99854.63;4992932;28;20532;-68
2023/09/21 08:48:15;;;;;;;1.13;0.68;;;;;;;25.32;51.76;99857.13;4991657;28;20560;-68
2023/09/21 08:50:41;;;;;;;0.82;0.50;;;;;;;25.61;50.96;99857.28;4992877;28;20026;-68
2023/09/21 08:53:12;;;;;;;0.30;0.30;;;;;;;25.06;52.72;99862.94;4991295;28;20398;-67
2023/09/21 08:55:38;;;;;;;1.05;0.70;;;;;;;25.05;52.17;99862.06;5009048;28;20096;-68
2023/09/21 08:58:06;;;;;;;0.98;0.55;;;;;;;25.11;52.47;99849.16;4992177;28;20025;-68
2023/09/21 09:00:33;;;;;;;2.45;0.85;;;;;;;25.10;53.30;99864.38;5008244;28;20025;-68
2023/09/21 09:02:59;;;;;;;0.85;0.63;;;;;;;25.27;52.93;99870.06;4992309;28;20049;-67
2023/09/21 09:05:25;;;;;;;0.75;0.57;;;;;;;25.17;53.48;99870.00;5008866;28;20092;-68
2023/09/21 09:07:51;;;;;;;1.85;0.70;;;;;;;25.26;51.98;99868.38;5009430;28;20037;-69
2023/09/21 09:10:18;;;;;;;2.38;1.33;;;;;;;25.01;52.79;99870.50;4992201;28;20033;-67
2023/09/21 09:12:43;;;;;;;2.30;0.73;;;;;;;25.05;53.14;99866.56;4992286;28;20030;-68
2023/09/21 09:15:09;;;;;;;2.80;0.63;;;;;;;25.06;53.19;99887.00;4991345;28;20030;-67
2023/09/21 09:17:36;;;;;;;0.75;0.68;;;;;;;25.30;52.35;99886.69;4992301;28;20096;-67
2023/09/21 09:20:06;;;;;;;2.63;0.93;;;;;;;25.29;52.02;99895.66;4991906;28;20036;-67
2023/09/21 09:22:34;;;;;;;4.63;0.90;;;;;;;25.19;51.89;99894.78;4991365;28;20141;-68
2023/09/21 09:25:07;;;;;;;2.97;0.52;;;;;;;24.87;52.54;99901.91;5009394;28;20025;-68
2023/09/21 09:27:33;;;;;;;1.25;0.95;;;;;;;23.88;54.74;99904.66;5010025;28;20084;-67
2023/09/21 09:29:59;;;;;;;0.93;0.77;;;;;;;24.50;53.45;99915.66;5007577;28;20029;-67
2023/09/21 09:32:30;;;;;;;1.55;0.65;;;;;;;24.90;53.12;99907.00;4992310;28;20655;-68
2023/09/21 09:34:56;;;;;;;1.30;0.90;;;;;;;24.63;52.77;99890.63;4991481;28;20489;-68
2023/09/21 09:37:21;;;;;;;1.88;0.95;;;;;;;24.73;53.11;99899.56;4991406;28;20060;-68
2023/09/21 09:39:47;;;;;;;1.23;0.82;;;;;;;24.25;55.34;99905.31;4992289;28;20030;-67
2023/09/21 09:42:15;;;;;;;0.75;0.60;;;;;;;24.39;54.54;99902.34;5008740;28;20371;-68
2023/09/21 09:44:46;;;;;;;2.70;0.52;;;;;;;24.64;54.32;99916.38;4991700;28;20391;-68
2023/09/21 09:47:16;;;;;;;2.03;0.68;;;;;;;23.88;56.71;99935.84;4991676;28;20038;-68
2023/09/21 09:49:45;;;;;;;1.20;0.73;;;;;;;24.95;53.70;99932.47;4994834;28;20030;-69
2023/09/21 09:52:13;;;;;;;4.70;1.05;;;;;;;24.87;54.89;99939.31;4995609;28;20036;-68
2023/09/21 09:54:39;;;;;;;1.52;0.60;;;;;;;25.15;54.06;99950.34;4996001;28;20552;-69
2023/09/21 09:57:11;;;;;;;1.02;0.65;;;;;;;25.26;53.12;99943.25;4994459;28;20099;-69
2023/09/21 09:59:37;;;;;;;1.50;0.40;;;;;;;24.44;54.68;99940.22;5012390;28;20034;-69
2023/09/21 10:02:05;;;;;;;4.90;0.60;;;;;;;25.15;53.10;99947.66;4995458;28;20533;-69
2023/09/21 10:04:34;;;;;;;1.15;0.63;;;;;;;24.67;54.70;99942.81;4994973;28;20045;-69
2023/09/21 10:06:59;;;;;;;1.35;0.80;;;;;;;24.77;55.17;99943.75;5012889;28;20550;-69
2023/09/21 10:09:27;;;;;;;2.38;0.77;;;;;;;23.94;56.32;99948.69;4995686;28;20121;-70
2023/09/21 10:11:54;;;;;;;0.82;0.40;;;;;;;24.65;54.55;99939.44;4994420;28;20049;-69
2023/09/21 10:14:20;;;;;;;2.33;0.50;;;;;;;24.88;53.90;99943.69;5012153;28;20091;-70
2023/09/21 10:16:56;;;;;;;1.23;0.70;;;;;;;24.58;54.01;99956.91;5013124;28;20026;-70
2023/09/21 10:19:26;;;;;;;0.68;0.60;;;;;;;24.90;53.72;99947.06;5011110;28;20030;-69
2023/09/21 10:22:03;;;;;;;0.80;0.70;;;;;;;24.74;53.73;99949.34;4995179;28;20034;-70
2023/09/21 10:24:30;;;;;;;1.70;0.70;;;;;;;24.54;56.14;99957.16;4991426;28;20046;-70
2023/09/21 10:27:01;;;;;;;1.45;0.80;;;;;;;24.56;54.52;99946.34;4975496;28;20042;-70
2023/09/21 10:29:32;;;;;;;1.23;0.68;;;;;;;24.35;56.12;99919.59;4975997;28;20038;-70
2023/09/21 10:32:04;;;;;;;2.00;0.73;;;;;;;24.12;56.04;99917.00;4990839;28;20477;-70
2023/09/21 10:34:31;;;;;;;1.33;0.80;;;;;;;23.85;57.89;99915.56;4993363;28;20034;-70
2023/09/21 10:37:10;;;;;;;1.98;0.95;;;;;;;23.76;56.28;99918.97;4975288;28;20101;-69
2023/09/21 10:39:42;;;;;;;1.92;0.80;;;;;;;23.55;58.05;99903.69;4975132;28;20030;-70
2023/09/21 10:42:07;;;;;;;0.63;0.63;;;;;;;23.68;57.79;99908.91;4975239;28;20475;-70
2023/09/21 10:45:05;;;;;;;0.85;0.65;;;;;;;24.29;56.45;99917.44;4992964;28;20037;-70
2023/09/21 10:47:36;;;;;;;2.35;0.70;;;;;;;24.40;56.13;99904.06;4990838;28;20026;-70
2023/09/21 10:50:04;;;;;;;3.30;1.08;;;;;;;24.75;55.88;99897.59;4974963;28;20129;-70
2023/09/21 10:52:31;;;;;;;0.70;0.70;;;;;;;24.11;57.53;99891.28;4992087;28;20053;-70
2023/09/21 10:54:57;;;;;;;2.35;0.90;;;;;;;24.42;56.70;99878.06;4992501;28;20089;-70
2023/09/21 10:57:27;;;;;;;4.53;0.90;;;;;;;24.63;56.25;99891.47;4991582;28;20479;-71
2023/09/21 10:59:54;;;;;;;0.50;0.50;;;;;;;24.61;56.39;99895.22;4990735;28;20026;-70
2023/09/21 11:02:21;;;;;;;1.13;0.70;;;;;;;24.25;56.93;99898.16;4975258;28;20089;-70
2023/09/21 11:04:47;;;;;;;0.95;0.85;;;;;;;24.97;54.85;99898.47;4992526;28;20402;-70
2023/09/21 11:07:13;;;;;;;1.05;0.80;;;;;;;24.06;56.82;99901.50;4974290;28;20054;-70
2023/09/21 11:09:39;;;;;;;1.55;0.95;;;;;;;24.50;57.17;99902.31;4975154;28;20513;-69
2023/09/21 11:12:08;;;;;;;1.10;0.80;;;;;;;23.93;58.03;99896.28;4992483;28;20057;-69
2023/09/21 11:14:34;;;;;;;1.20;1.00;;;;;;;24.92;55.77;99892.66;4991933;28;20483;-69
2023/09/21 11:17:00;;;;;;;1.95;1.15;;;;;;;24.82;55.97;99896.09;4974875;28;20030;-70
2023/09/21 11:19:26;;;;;;;0.82;0.80;;;;;;;25.16;54.86;99874.50;4975269;28;20088;-69
2023/09/21 11:21:51;;;;;;;1.13;0.75;;;;;;;24.67;56.62;99860.00;4991544;28;20482;-71
2023/09/21 11:24:17;;;;;;;1.83;0.80;;;;;;;24.52;57.27;99854.97;4989388;28;20137;-69
2023/09/21 11:26:46;;;;;;;1.13;0.88;;;;;;;25.01;56.29;99844.59;4992352;28;20031;-71
2023/09/21 11:29:14;;;;;;;1.75;1.20;;;;;;;25.12;55.66;99841.00;4990269;28;20034;-71
2023/09/21 11:31:44;;;;;;;1.90;1.23;;;;;;;25.09;57.10;99832.38;4974954;28;20460;-69
2023/09/21 11:34:10;;;;;;;1.13;0.95;;;;;;;25.05;56.29;99830.00;4990467;28;20023;-69
2023/09/21 11:36:36;;;;;;;1.70;1.30;;;;;;;24.42;58.09;99835.34;4974372;28;20489;-69